createdAt,value
2018-07-07T00:00:24.925Z,63.30
2018-07-07T00:02:52.963Z,63.60
2018-07-07T00:05:21.033Z,63.80
2018-07-07T00:10:17.128Z,64.40
2018-07-07T00:12:45.516Z,64.60
2018-07-07T00:15:16.749Z,64.70
2018-07-07T00:17:45.240Z,65.00
2018-07-07T00:20:13.334Z,65.20
2018-07-07T00:22:41.391Z,65.40
2018-07-07T00:25:16.734Z,65.40
2018-07-07T00:27:45.634Z,66.40
2018-07-07T00:30:13.705Z,66.20
2018-07-07T00:32:41.795Z,66.20
2018-07-07T00:35:10.034Z,66.30
2018-07-07T00:37:38.111Z,67.00
2018-07-07T00:40:06.823Z,66.50
2018-07-07T00:42:35.174Z,66.70
2018-07-07T00:45:03.244Z,66.80
2018-07-07T00:47:31.520Z,67.00
2018-07-07T00:49:59.594Z,67.30
2018-07-07T00:52:27.666Z,67.50
2018-07-07T00:54:55.825Z,67.80
2018-07-07T00:57:24.007Z,68.00
2018-07-07T00:59:52.286Z,68.10
2018-07-07T01:02:21.790Z,68.20
2018-07-07T01:04:54.066Z,68.20
2018-07-07T01:07:22.862Z,68.40
2018-07-07T01:09:50.935Z,68.30
2018-07-07T01:12:19.073Z,68.20
2018-07-07T01:14:47.478Z,68.00
2018-07-07T01:17:15.558Z,67.70
2018-07-07T01:19:43.666Z,67.60
2018-07-07T01:22:12.926Z,67.50
2018-07-07T01:24:41.642Z,67.50
2018-07-07T01:27:09.882Z,67.40
2018-07-07T01:29:38.571Z,67.50
2018-07-07T01:32:07.044Z,67.60
2018-07-07T01:34:35.174Z,67.50
2018-07-07T01:37:03.298Z,67.70
2018-07-07T01:39:31.378Z,67.80
2018-07-07T01:41:59.442Z,68.00
2018-07-07T01:44:27.818Z,68.00
2018-07-07T01:46:55.958Z,67.90
2018-07-07T01:49:24.007Z,68.00
2018-07-07T01:51:52.074Z,67.90
2018-07-07T01:54:20.143Z,67.90
2018-07-07T01:56:48.206Z,67.90
2018-07-07T01:59:16.295Z,68.30
2018-07-07T02:01:44.338Z,68.50
2018-07-07T02:04:12.430Z,68.60
2018-07-07T02:06:40.502Z,68.80
2018-07-07T02:09:08.615Z,68.90
2018-07-07T02:11:36.690Z,68.90
2018-07-07T02:14:04.953Z,69.10
2018-07-07T02:16:33.036Z,69.20
2018-07-07T02:19:01.087Z,69.40
2018-07-07T02:21:29.183Z,69.40
2018-07-07T02:23:57.252Z,69.60
2018-07-07T02:26:25.336Z,69.60
2018-07-07T02:28:53.534Z,69.80
2018-07-07T02:31:21.593Z,70.10
2018-07-07T02:33:49.681Z,70.30
2018-07-07T02:36:17.742Z,69.80
2018-07-07T02:38:45.842Z,70.50
2018-07-07T02:41:14.178Z,71.10
2018-07-07T02:43:42.182Z,71.20
2018-07-07T02:46:10.248Z,71.90
2018-07-07T02:48:38.361Z,71.80
2018-07-07T02:51:06.582Z,71.90
2018-07-07T02:53:34.640Z,72.10
2018-07-07T02:56:02.725Z,72.20
2018-07-07T02:58:31.203Z,72.30
2018-07-07T03:00:59.266Z,72.20
2018-07-07T03:03:27.447Z,72.20
2018-07-07T03:05:55.833Z,72.50
2018-07-07T03:08:23.902Z,72.80
2018-07-07T03:10:52.010Z,73.80
2018-07-07T03:15:48.322Z,73.60
2018-07-07T03:18:16.382Z,73.30
2018-07-07T03:20:44.446Z,73.40
2018-07-07T03:23:12.827Z,73.50
2018-07-07T03:25:40.895Z,73.50
2018-07-07T03:28:08.960Z,73.70
2018-07-07T03:30:37.022Z,73.80
2018-07-07T03:33:05.112Z,74.00
2018-07-07T03:35:33.183Z,74.10
2018-07-07T03:38:01.284Z,74.10
2018-07-07T03:40:29.294Z,74.80
2018-07-07T03:42:57.354Z,74.20
2018-07-07T03:45:25.418Z,74.30
2018-07-07T03:47:53.464Z,74.40
2018-07-07T03:50:21.532Z,74.50
2018-07-07T03:52:49.594Z,74.50
2018-07-07T03:55:17.748Z,74.60
2018-07-07T03:57:45.810Z,74.60
2018-07-07T04:00:13.913Z,74.60
2018-07-07T04:02:41.981Z,74.60
2018-07-07T04:05:10.075Z,74.60
2018-07-07T04:07:38.143Z,74.70
2018-07-07T04:10:06.218Z,74.60
2018-07-07T04:12:34.302Z,74.60
2018-07-07T04:15:02.391Z,74.60
2018-07-07T04:17:30.463Z,74.80
2018-07-07T04:19:58.628Z,75.80
2018-07-07T04:22:26.666Z,75.70
2018-07-07T04:24:54.739Z,76.30
2018-07-07T04:27:22.822Z,76.20
2018-07-07T04:29:51.088Z,76.30
2018-07-07T04:32:19.147Z,76.30
2018-07-07T04:34:47.258Z,76.20
2018-07-07T04:37:15.349Z,76.20
2018-07-07T04:39:43.446Z,76.40
2018-07-07T04:42:11.552Z,76.80
2018-07-07T04:44:39.635Z,76.90
2018-07-07T04:47:07.710Z,77.00
2018-07-07T04:49:35.778Z,76.90
2018-07-07T04:52:03.834Z,77.00
2018-07-07T04:54:31.912Z,77.00
2018-07-07T04:57:00.007Z,77.10
2018-07-07T04:59:28.067Z,77.20
2018-07-07T05:01:56.175Z,77.30
2018-07-07T05:04:24.271Z,77.50
2018-07-07T05:06:52.322Z,77.90
2018-07-07T05:09:20.396Z,77.60
2018-07-07T05:11:48.468Z,78.80
2018-07-07T05:14:16.542Z,78.40
2018-07-07T05:16:44.659Z,79.30
2018-07-07T05:19:12.730Z,78.80
2018-07-07T05:21:40.821Z,78.50
2018-07-07T05:24:08.886Z,78.40
2018-07-07T05:26:36.974Z,78.20
2018-07-07T05:29:05.047Z,78.00
2018-07-07T05:31:33.118Z,77.90
2018-07-07T05:34:01.219Z,77.80
2018-07-07T05:36:29.291Z,77.60
2018-07-07T05:38:57.380Z,77.50
2018-07-07T05:41:25.454Z,77.30
2018-07-07T05:43:53.602Z,77.00
2018-07-07T05:46:21.711Z,76.80
2018-07-07T05:48:49.879Z,76.80
2018-07-07T05:51:17.942Z,76.60
2018-07-07T05:53:46.039Z,76.60
2018-07-07T05:56:14.112Z,76.40
2018-07-07T05:58:42.167Z,76.40
2018-07-07T06:01:10.287Z,76.10
2018-07-07T06:03:38.350Z,75.90
2018-07-07T06:06:06.402Z,75.70
2018-07-07T06:08:34.575Z,75.30
2018-07-07T06:11:02.681Z,75.00
2018-07-07T06:13:31.030Z,74.70
2018-07-07T06:15:59.137Z,74.60
2018-07-07T06:18:27.289Z,74.50
2018-07-07T06:20:55.311Z,74.40
2018-07-07T06:23:23.378Z,74.10
2018-07-07T06:25:51.810Z,73.90
2018-07-07T06:28:19.892Z,73.90
2018-07-07T06:30:47.975Z,73.60
2018-07-07T06:33:16.053Z,73.00
2018-07-07T06:35:44.128Z,72.80
2018-07-07T06:38:12.297Z,72.70
2018-07-07T06:40:40.390Z,72.20
2018-07-07T06:43:08.486Z,71.70
2018-07-07T06:45:36.544Z,70.90
2018-07-07T06:48:04.614Z,70.20
2018-07-07T06:50:32.997Z,69.50
2018-07-07T06:53:01.157Z,68.60
2018-07-07T06:55:29.195Z,68.00
2018-07-07T06:57:57.274Z,67.90
2018-07-07T07:00:25.391Z,66.10
2018-07-07T07:02:53.746Z,64.40
2018-07-07T07:05:40.331Z,64.40
2018-07-07T07:08:08.419Z,63.90
2018-07-07T07:10:36.506Z,64.50
2018-07-07T07:13:04.596Z,64.30
2018-07-07T07:15:32.909Z,63.80
2018-07-07T07:18:01.041Z,63.30
2018-07-07T07:20:29.107Z,63.10
2018-07-07T07:22:57.729Z,62.30
2018-07-07T07:25:25.799Z,61.60
2018-07-07T07:27:54.260Z,60.40
2018-07-07T07:30:22.357Z,59.90
2018-07-07T07:32:50.429Z,59.50
2018-07-07T07:35:18.567Z,59.20
2018-07-07T07:37:46.741Z,58.60
2018-07-07T07:40:14.826Z,57.40
2018-07-07T07:42:42.928Z,56.40
2018-07-07T07:45:17.865Z,55.80
2018-07-07T07:47:45.994Z,55.60
2018-07-07T07:50:15.779Z,55.00
2018-07-07T07:52:43.931Z,54.40
2018-07-07T07:55:12.399Z,53.20
2018-07-07T07:57:40.508Z,54.00
2018-07-07T08:00:08.602Z,54.20
2018-07-07T08:02:36.837Z,53.40
2018-07-07T08:05:05.061Z,52.60
2018-07-07T08:07:33.142Z,51.80
2018-07-07T08:10:01.524Z,51.60
2018-07-07T08:12:29.599Z,51.30
2018-07-07T08:14:59.112Z,51.40
2018-07-07T08:17:27.757Z,50.80
2018-07-07T08:19:56.670Z,50.40
2018-07-07T08:22:26.299Z,50.10
2018-07-07T08:24:55.526Z,49.90
2018-07-07T08:27:25.740Z,49.30
2018-07-07T08:29:53.822Z,48.80
2018-07-07T08:32:21.911Z,48.60
2018-07-07T08:34:49.981Z,48.40
2018-07-07T08:37:18.075Z,48.10
2018-07-07T08:39:46.159Z,47.20
2018-07-07T08:42:15.541Z,46.80
2018-07-07T08:44:43.620Z,46.40
2018-07-07T08:47:11.679Z,45.40
2018-07-07T08:49:41.552Z,44.90
2018-07-07T08:52:09.887Z,44.80
2018-07-07T08:54:38.027Z,44.00
2018-07-07T08:57:07.151Z,43.10
2018-07-07T08:59:36.669Z,41.60
2018-07-07T09:02:06.039Z,40.20
2018-07-07T09:04:34.156Z,40.90
2018-07-07T09:07:02.284Z,41.20
2018-07-07T09:09:30.489Z,41.30
2018-07-07T09:11:58.552Z,41.20
2018-07-07T09:14:27.498Z,41.30
2018-07-07T09:16:55.869Z,41.50
2018-07-07T09:19:23.982Z,41.60
2018-07-07T09:21:52.071Z,41.00
2018-07-07T09:24:20.391Z,40.90
2018-07-07T09:26:49.342Z,41.10
2018-07-07T09:29:18.290Z,41.20
2018-07-07T09:31:48.838Z,41.50
2018-07-07T09:36:45.911Z,41.10
2018-07-07T09:39:14.764Z,41.20
2018-07-07T09:41:42.892Z,38.80
2018-07-07T09:44:11.161Z,39.40
2018-07-07T09:46:39.159Z,39.40
2018-07-07T09:49:07.251Z,39.30
2018-07-07T09:51:35.324Z,39.00
2018-07-07T09:54:03.411Z,39.10
2018-07-07T09:56:31.535Z,39.10
2018-07-07T09:58:59.612Z,39.10
2018-07-07T10:01:27.735Z,38.80
2018-07-07T10:03:55.840Z,38.90
2018-07-07T10:06:24.286Z,38.90
2018-07-07T10:08:52.468Z,38.70
2018-07-07T10:11:20.535Z,38.20
2018-07-07T10:13:48.630Z,37.90
2018-07-07T10:16:16.750Z,38.20
2018-07-07T10:18:44.888Z,38.00
2018-07-07T10:21:13.119Z,37.70
2018-07-07T10:23:41.207Z,37.70
2018-07-07T10:28:37.281Z,37.10
2018-07-07T10:31:05.371Z,37.40
2018-07-07T10:33:33.534Z,38.20
2018-07-07T10:36:01.623Z,37.60
2018-07-07T10:38:30.149Z,37.60
2018-07-07T10:40:58.254Z,37.70
2018-07-07T10:43:26.331Z,37.90
2018-07-07T10:45:54.607Z,37.90
2018-07-07T10:48:22.571Z,37.40
2018-07-07T10:50:50.700Z,37.50
2018-07-07T10:53:18.827Z,37.20
2018-07-07T10:55:46.957Z,36.80
2018-07-07T10:58:15.047Z,36.90
2018-07-07T11:00:43.368Z,37.30
2018-07-07T11:03:11.442Z,36.70
2018-07-07T11:05:39.522Z,36.20
2018-07-07T11:08:07.750Z,36.10
2018-07-07T11:10:35.935Z,36.10
2018-07-07T11:13:04.296Z,36.00
2018-07-07T11:15:32.368Z,36.00
2018-07-07T11:18:00.443Z,35.90
2018-07-07T11:20:28.540Z,36.30
2018-07-07T11:22:56.706Z,36.60
2018-07-07T11:25:24.780Z,36.50
2018-07-07T11:27:52.902Z,36.60
2018-07-07T11:30:21.017Z,37.20
2018-07-07T11:32:49.114Z,37.30
2018-07-07T11:35:17.217Z,37.20
2018-07-07T11:37:45.529Z,37.20
2018-07-07T11:40:13.664Z,37.50
2018-07-07T11:45:09.736Z,37.40
2018-07-07T11:47:37.874Z,37.50
2018-07-07T11:52:34.260Z,36.40
2018-07-07T11:55:02.331Z,36.10
2018-07-07T11:57:30.402Z,36.10
2018-07-07T11:59:58.483Z,36.20
2018-07-07T12:02:26.585Z,36.50
2018-07-07T12:04:54.792Z,36.20
2018-07-07T12:07:22.793Z,37.30
2018-07-07T12:09:50.967Z,36.60
2018-07-07T12:12:19.149Z,36.50
2018-07-07T12:14:47.846Z,36.60
2018-07-07T12:17:17.573Z,36.40
2018-07-07T12:19:45.655Z,37.20
2018-07-07T12:22:13.730Z,37.20
2018-07-07T12:24:41.805Z,37.20
2018-07-07T12:27:10.163Z,36.50
2018-07-07T12:29:38.245Z,36.30
2018-07-07T12:32:06.399Z,36.10
2018-07-07T12:34:34.471Z,35.60
2018-07-07T12:37:02.559Z,35.80
2018-07-07T12:39:30.642Z,35.60
2018-07-07T12:41:58.796Z,35.90
2018-07-07T12:44:26.874Z,35.20
2018-07-07T12:46:54.959Z,35.80
2018-07-07T12:49:23.083Z,35.90
2018-07-07T12:51:51.483Z,36.20
2018-07-07T12:54:19.775Z,36.10
2018-07-07T12:56:47.840Z,36.50
2018-07-07T12:59:15.939Z,36.50
2018-07-07T13:01:44.059Z,36.30
2018-07-07T13:04:12.602Z,36.00
2018-07-07T13:09:08.565Z,36.40
2018-07-07T13:11:36.957Z,36.80
2018-07-07T13:14:05.245Z,37.30
2018-07-07T13:16:33.543Z,37.90
2018-07-07T13:19:01.740Z,38.00
2018-07-07T13:21:29.895Z,38.10
2018-07-07T13:23:57.968Z,38.50
2018-07-07T13:26:26.095Z,38.30
2018-07-07T13:28:54.122Z,38.50
2018-07-07T13:33:50.089Z,38.20
2018-07-07T13:36:18.310Z,38.10
2018-07-07T13:38:46.708Z,38.00
2018-07-07T13:41:15.298Z,38.00
2018-07-07T13:43:43.485Z,38.10
2018-07-07T13:46:11.570Z,38.20
2018-07-07T13:48:39.765Z,39.20
2018-07-07T13:51:07.941Z,39.10
2018-07-07T13:53:36.019Z,39.40
2018-07-07T13:56:04.091Z,39.00
2018-07-07T13:58:32.166Z,39.00
2018-07-07T14:01:00.242Z,39.20
2018-07-07T14:03:28.614Z,39.40
2018-07-07T14:05:57.000Z,39.60
2018-07-07T14:08:25.102Z,39.50
2018-07-07T14:10:53.470Z,39.70
2018-07-07T14:13:21.575Z,39.80
2018-07-07T14:15:49.698Z,39.90
2018-07-07T14:18:17.769Z,39.70
2018-07-07T14:20:45.855Z,39.30
2018-07-07T14:23:13.935Z,39.60
2018-07-07T14:25:42.066Z,39.90
2018-07-07T14:28:10.167Z,40.60
2018-07-07T14:30:38.344Z,40.50
2018-07-07T14:33:06.431Z,40.50
2018-07-07T14:35:34.572Z,40.80
2018-07-07T14:38:02.656Z,40.20
2018-07-07T14:40:30.733Z,39.80
2018-07-07T14:42:58.918Z,39.30
2018-07-07T14:45:30.046Z,39.40
2018-07-07T14:47:59.604Z,39.10
2018-07-07T14:50:27.947Z,38.60
2018-07-07T14:52:56.040Z,38.80
2018-07-07T14:55:25.413Z,38.90
2018-07-07T14:57:53.537Z,39.10
2018-07-07T15:00:22.827Z,38.80
2018-07-07T15:05:20.071Z,39.30
2018-07-07T15:07:48.725Z,39.80
2018-07-07T15:10:23.553Z,40.60
2018-07-07T15:12:51.643Z,41.00
2018-07-07T15:15:19.805Z,41.40
2018-07-07T15:17:47.908Z,41.90
2018-07-07T15:20:16.007Z,42.10
2018-07-07T15:22:44.269Z,42.50
2018-07-07T15:25:12.306Z,42.50
2018-07-07T15:27:41.559Z,42.90
2018-07-07T15:30:10.335Z,43.50
2018-07-07T15:32:38.790Z,43.90
2018-07-07T15:35:06.866Z,44.00
2018-07-07T15:37:35.088Z,43.80
2018-07-07T15:40:03.580Z,43.40
2018-07-07T15:42:31.650Z,43.00
2018-07-07T15:44:59.838Z,42.60
2018-07-07T15:47:28.013Z,42.70
2018-07-07T15:49:56.211Z,42.50
2018-07-07T15:52:24.294Z,42.30
2018-07-07T15:54:52.403Z,42.30
2018-07-07T15:57:20.578Z,42.50
2018-07-07T15:59:48.624Z,42.50
2018-07-07T16:02:16.752Z,42.80
2018-07-07T16:04:44.835Z,42.60
2018-07-07T16:07:12.907Z,42.20
2018-07-07T16:09:41.309Z,42.30
2018-07-07T16:12:09.408Z,42.30
2018-07-07T16:14:37.556Z,42.40
2018-07-07T16:17:05.720Z,42.50
2018-07-07T16:19:33.808Z,42.50
2018-07-07T16:22:02.222Z,42.10
2018-07-07T16:24:30.275Z,42.40
2018-07-07T16:26:58.395Z,42.40
2018-07-07T16:29:26.487Z,42.40
2018-07-07T16:31:54.663Z,42.20
2018-07-07T16:34:23.025Z,41.70
2018-07-07T16:36:51.126Z,41.20
2018-07-07T16:39:19.307Z,40.00
2018-07-07T16:41:47.400Z,40.00
2018-07-07T16:44:15.510Z,39.50
2018-07-07T16:46:43.613Z,39.40
2018-07-07T16:49:11.696Z,39.00
2018-07-07T16:51:39.988Z,38.30
2018-07-07T16:54:08.066Z,38.00
2018-07-07T16:59:04.452Z,37.30
2018-07-07T17:01:32.927Z,36.90
2018-07-07T17:04:01.015Z,36.80
2018-07-07T17:06:29.409Z,36.60
2018-07-07T17:08:58.039Z,37.40
2018-07-07T17:11:26.968Z,38.50
2018-07-07T17:13:55.324Z,39.30
2018-07-07T17:16:23.415Z,39.30
2018-07-07T17:18:51.687Z,39.90
2018-07-07T17:21:19.891Z,40.30
2018-07-07T17:23:48.070Z,40.40
2018-07-07T17:26:16.203Z,40.80
2018-07-07T17:28:44.333Z,41.20
2018-07-07T17:31:12.414Z,41.50
2018-07-07T17:33:40.540Z,41.80
2018-07-07T17:36:08.648Z,42.10
2018-07-07T17:38:36.870Z,42.30
2018-07-07T17:41:04.992Z,42.50
2018-07-07T17:43:33.060Z,42.70
2018-07-07T17:46:01.205Z,42.50
2018-07-07T17:48:29.307Z,42.80
2018-07-07T17:50:57.470Z,42.80
2018-07-07T17:53:25.932Z,42.30
2018-07-07T17:55:54.234Z,41.90
2018-07-07T17:58:22.811Z,41.50
2018-07-07T18:00:51.263Z,42.00
2018-07-07T18:03:19.435Z,41.30
2018-07-07T18:05:47.506Z,41.40
2018-07-07T18:08:15.595Z,41.70
2018-07-07T18:10:43.768Z,42.00
2018-07-07T18:13:12.136Z,42.20
2018-07-07T18:15:40.222Z,41.90
2018-07-07T18:18:08.324Z,41.50
2018-07-07T18:20:36.416Z,41.40
2018-07-07T18:23:04.539Z,41.20
2018-07-07T18:25:32.999Z,40.10
2018-07-07T18:28:01.059Z,38.30
2018-07-07T18:30:29.161Z,36.50
2018-07-07T18:32:57.347Z,34.70
2018-07-07T18:35:25.646Z,33.00
2018-07-07T18:40:21.635Z,34.20
2018-07-07T18:42:49.842Z,35.60
2018-07-07T18:45:17.963Z,38.10
2018-07-07T18:47:46.044Z,39.00
2018-07-07T18:50:14.225Z,41.00
2018-07-07T18:52:42.359Z,41.80
2018-07-07T18:55:10.413Z,42.40
2018-07-07T18:57:38.527Z,43.30
2018-07-07T19:00:06.627Z,44.00
2018-07-07T19:02:35.019Z,45.10
2018-07-07T19:05:03.103Z,45.80
2018-07-07T19:07:31.206Z,46.50
2018-07-07T19:09:59.274Z,47.10
2018-07-07T19:12:27.385Z,47.80
2018-07-07T19:15:01.109Z,48.50
2018-07-07T19:17:29.352Z,49.30
2018-07-07T19:19:57.447Z,50.00
2018-07-07T19:22:30.920Z,50.70
2018-07-07T19:25:04.564Z,51.70
2018-07-07T19:27:32.647Z,53.90
2018-07-07T19:30:00.752Z,54.20
2018-07-07T19:32:34.434Z,55.00
2018-07-07T19:35:08.161Z,55.60
2018-07-07T19:40:04.172Z,56.80
2018-07-07T19:42:32.591Z,57.30
2018-07-07T19:45:00.695Z,57.80
2018-07-07T19:47:28.812Z,58.00
2018-07-07T19:49:56.907Z,58.30
2018-07-07T19:52:25.007Z,58.50
2018-07-07T19:54:53.099Z,58.80
2018-07-07T19:57:21.262Z,59.40
2018-07-07T19:59:49.335Z,60.90
2018-07-07T20:02:17.583Z,61.20
2018-07-07T20:04:45.654Z,61.70
2018-07-07T20:07:13.743Z,61.50
2018-07-07T20:09:41.820Z,61.50
2018-07-07T20:12:09.915Z,61.70
2018-07-07T20:14:38.075Z,61.80
2018-07-07T20:17:07.371Z,62.00
2018-07-07T20:19:52.491Z,62.20
2018-07-07T20:22:20.672Z,62.40
2018-07-07T20:24:48.884Z,62.60
2018-07-07T20:27:22.702Z,62.90
2018-07-07T20:29:50.816Z,63.20
2018-07-07T20:32:24.437Z,63.60
2018-07-07T20:34:52.538Z,63.80
2018-07-07T20:37:20.604Z,64.70
2018-07-07T20:39:48.793Z,64.60
2018-07-07T20:42:16.876Z,64.60
2018-07-07T20:44:45.270Z,64.80
2018-07-07T20:47:13.366Z,65.00
2018-07-07T20:49:41.435Z,65.20
2018-07-07T20:52:09.530Z,65.30
2018-07-07T20:54:37.603Z,65.60
2018-07-07T20:57:06.050Z,66.40
2018-07-07T20:59:34.202Z,65.90
2018-07-07T21:02:02.363Z,66.10
2018-07-07T21:04:30.383Z,66.00
2018-07-07T21:06:58.461Z,66.10
2018-07-07T21:09:26.548Z,66.30
2018-07-07T21:11:54.949Z,67.20
2018-07-07T21:14:23.051Z,67.20
2018-07-07T21:16:51.197Z,67.10
2018-07-07T21:19:19.331Z,67.10
2018-07-07T21:21:47.673Z,67.20
2018-07-07T21:24:15.783Z,67.40
2018-07-07T21:26:43.894Z,67.30
2018-07-07T21:29:12.067Z,67.30
2018-07-07T21:31:40.095Z,67.50
2018-07-07T21:34:08.535Z,67.60
2018-07-07T21:36:36.620Z,67.60
2018-07-07T21:39:05.266Z,67.60
2018-07-07T21:41:33.367Z,67.70
2018-07-07T21:44:01.552Z,67.80
2018-07-07T21:46:29.657Z,67.70
2018-07-07T21:48:57.779Z,67.80
2018-07-07T21:51:25.879Z,67.90
2018-07-07T21:53:54.120Z,68.40
2018-07-07T21:56:22.246Z,68.20
2018-07-07T21:58:54.629Z,68.00
2018-07-07T22:03:43.899Z,68.10
2018-07-07T22:06:12.787Z,68.20
2018-07-07T22:08:40.948Z,68.00
2018-07-07T22:11:09.024Z,68.10
2018-07-07T22:13:37.114Z,68.30
2018-07-07T22:16:05.194Z,68.50
2018-07-07T22:18:33.372Z,68.80
2018-07-07T22:21:13.178Z,68.90
2018-07-07T22:23:41.279Z,69.10
2018-07-07T22:26:09.359Z,69.30
2018-07-07T22:28:37.439Z,69.60
2018-07-07T22:31:05.906Z,70.70
2018-07-07T22:33:33.979Z,71.30
2018-07-07T22:36:07.778Z,70.60
2018-07-07T22:38:41.452Z,70.70
2018-07-07T22:41:09.867Z,70.80
2018-07-07T22:43:38.034Z,71.00
2018-07-07T22:46:06.087Z,71.10
2018-07-07T22:48:34.147Z,71.50
2018-07-07T22:51:02.225Z,71.60
2018-07-07T22:53:30.296Z,71.50
2018-07-07T22:55:58.375Z,71.50
2018-07-07T22:58:26.573Z,71.50
2018-07-07T23:00:54.639Z,71.40
2018-07-07T23:03:22.710Z,71.40
2018-07-07T23:05:50.763Z,72.10
2018-07-07T23:08:18.845Z,71.90
2018-07-07T23:10:46.910Z,71.80
2018-07-07T23:13:15.089Z,71.90
2018-07-07T23:15:43.154Z,72.00
2018-07-07T23:18:11.223Z,72.10
2018-07-07T23:20:39.283Z,72.10
2018-07-07T23:25:35.326Z,72.40
2018-07-07T23:28:03.403Z,72.50
2018-07-07T23:32:59.374Z,72.70
2018-07-07T23:35:27.463Z,72.70
2018-07-07T23:37:55.554Z,72.80
2018-07-07T23:40:23.611Z,72.90
2018-07-07T23:42:51.966Z,73.20
2018-07-07T23:45:20.035Z,74.00
2018-07-07T23:47:48.103Z,74.10
2018-07-07T23:50:16.161Z,74.10
2018-07-07T23:52:44.259Z,73.90
2018-07-07T23:55:12.422Z,74.10
2018-07-07T23:57:40.495Z,73.90
